04:35
Airports
History
Links
Donate
Help keep this website running!
PayPal
Bitcoin
This page is community maintained. The information is intended for PC simulator navigation or reference.
Always use approved charts for navigation.
CZFN
Tulita
Tulita (CZFN)
Tulita, Northwest Territories, Canada
(C)
Lat/Lng:64° 54' 34.34" N / 125° 34' 21.36" W
64.90954 / -125.5726
Elevation:332'ft / 101mMSL
ID / ICAO:CZFN
Runways:1
Longest:05-23
Gravel 917m / 3,010ft
Controlled:Yes
Nearby Weather04:00 GMT 2017-09-22
Nearby weather at CYVQ, NORMAN WELLS located 44.0 nautical miles from CZFN
Altimeter: 30.04
Visibility: 30.0 statute miles
Wind: 2 knots (from 070°)
Temp: 8°c / 46°f
Humidity: 75.8%

METAR: CYVQ 220400Z 07002KT 30SM FEW022 OVC029 08/04 A3004 RMK SC1SC7 SLP179

(Powered by phpweather)
Airport Radio Frequencies
Tulita Traffic Multicom: 122.1
Nearby VORs <50NM
Nearby NDBs
Runway 05 / 23
Dimensions:917.3 x 29.9m 3010' x 98'ft
Surface:Gravel
Edge Lights:Low intensity
Runway 05 [A]Runway 23 [B]
Heading:084°TH 264°TH
Lat:
Lng:
64° 54' 32.8"N
125° 34' 56.1"W
64° 54' 35.89"N
125° 33' 46.62"W
TDZ:Yes
User Notes and Comments
64° 54' 34.34" N / 125° 34' 21.36" W
Distance To
Airport ID:
Nearby Airports
(U) NORMAN WELLS 44.0 NM
CYVQ ( WX ) NW 305°
4 Deline 65.6 NM
CYWJ ENE 71°
4 Ford Bay 81.7 NM
BC2 NNE 17°
4 FORT GOOD HOPE 127.2 NM
CYGH NW 316°
4 WRIGLEY 134.0 NM
CYWY SSE 151°
4 Colville Lake 168.0 NM
EB3 N 355°
4 Macmillan Pass 184.2 NM
CFC4 SW 229°
VFR Chart
Flight Planning at SkyVector.com